North Palm Springs, CA (92258)

11:10 PM PDT on September 18, 2014 (GMT -0700)
Four Seasons | Change Station
CLOSE
Current Station
Personal Weather Station
Location: Palm Springs, CA
Elevation: 564 ft
Nearby Weather Stations
Active Advisory: Wind Advisory Active Notice: Record Report

Elev 564 ft 33.86 °N, 116.53 °W | Updated 6 seconds ago

Clear
Clear
80.8 °F
Feels Like 81 °F
N
15.9
Wind Variable Wind from NW
Gusts 23.5 mph

Today
High -- | Low -- °F
--% Chance of Precip.
Yesterday
High -- | Low -- °F
Precip. -- in
6:31 AM 6:48 PM
Waning Crescent, 21% visible
Pressure 29.69 in
Visibility 10.0 miles
Clouds Clear
Heat Index 81 °F
Dew Point 59 °F
Humidity 48%
Rainfall 0.00 in
Snow Depth 1 in , 0 in , 1 in
UV 0 out of 12
Pollen 6.10 out of 12
Ozone Good
Flu Activity Not available.
METAR KPSP 190553Z AUTO 32017KT 10SM CLR 30/14 A2970 RMK AO2 SLP052 T03000144 10383 20300 51010 TSNO

More Conditions Fewer Conditions

Pressure 29.69 in
Visibility 10.0 miles
Clouds Clear
Heat Index 81 °F
Dew Point 59 °F
Humidity 48%
Rainfall 0.00 in
Snow Depth 1 in , 0 in , 1 in
UV 0 out of 12
Pollen 6.10 out of 12
Ozone Good
Flu Activity Not available.
METAR KPSP 190553Z AUTO 32017KT 10SM CLR 30/14 A2970 RMK AO2 SLP052 T03000144 10383 20300 51010 TSNO

More Conditions Fewer Conditions

10-Day Weather Forecast

Almanac

Astronomy

Sep. 18, 2014 Rise Set
Actual Time 6:31 AM PDT 6:48 PM PDT
Civil Twilight 6:06 AM PDT 7:13 PM PDT
Nautical Twilight 5:37 AM PDT 7:42 PM PDT
Astronomical Twilight 5:07 AM PDT 8:12 PM PDT
Moon 1:38 AM PDT (9/18) 3:32 PM PDT (9/18)
Length of Visible Light 13h 06m
Length of Day
12h 16m
Tomorrow will be 2m 5s shorter.
Waning Crescent, 21% of the Moon is Illuminated
Sep 19
Waning Crescent
Sep 24
New
Oct 1
First Quarter
Oct 8
Full
Oct 15
Last Quarter

Yesterday's Extremes

State Highs State Lows

Community

WunderPhotos

Upload Photos

1,754,575 photos uploaded!

Nearby

Air Quality

  Air Quality AQ Index Pollutant
Yesterday Good
OZONE
Yesterday Good
PM10
Current Good
OZONE
Friday Moderate
OZONE
Friday Good
PM10
Friday Good
CO
Friday Good
NO2

Snow Depth

Station Depth Elevation
Summit Meadow 1 in 9122 ft
Forestdale Creek 0 in 8029 ft
Spratt Creek 1 in 6200 ft
Leavitt Lake 1 in 9400 ft
Squaw Valley 0 in 8200 ft

Earthquake Activity

City Distance Mag. Time & Date
La Quinta, California 28 miles 2.7 8:59 PM PDT
2014-09-15
Minimum magnitude displayed is 2.5.

Coastal Water Temperatures

Place Temperature
No Stations Reporting

Nearby Weather Stations